Time;durP1;ratioP1;P1;durP2;ratioP2;P2;SDS_P1;SDS_P2;PMS_P1;PMS_P2;Temp;Humidity;BMP_temperature;BMP_pressure;BME280_temperature;BME280_humidity;BME280_pressure;Samples;Min_cycle;Max_cycle;Signal;HPM_P1;HPM_P2
2024/01/11 00:01:24;;;;;;;0.13;0.13;;;;;;;-3.80;75.18;98025.22;5045176;28;20314;-63
2024/01/11 00:03:50;;;;;;;0.20;0.20;;;;;;;-3.84;75.09;98024.06;5045504;28;20068;-63
2024/01/11 00:06:17;;;;;;;0.20;0.20;;;;;;;-3.71;74.85;98022.84;5046353;28;20507;-64
2024/01/11 00:08:44;;;;;;;0.10;0.10;;;;;;;-3.63;73.84;98052.16;5045355;28;20482;-63
2024/01/11 00:11:11;;;;;;;0.20;0.20;;;;;;;-3.53;73.12;98019.78;5046029;28;20542;-63
2024/01/11 00:13:40;;;;;;;0.20;0.20;;;;;;;-3.67;73.54;97983.38;5065547;28;20481;-63
2024/01/11 00:16:06;;;;;;;0.20;0.20;;;;;;;-4.04;74.15;97947.28;5065016;28;20045;-64
2024/01/11 00:18:33;;;;;;;0.10;0.10;;;;;;;-3.50;73.00;98009.25;5065276;28;20052;-62
2024/01/11 00:21:00;;;;;;;0.10;0.10;;;;;;;-3.85;73.07;97940.44;5065101;28;20061;-63
2024/01/11 00:23:27;;;;;;;0.20;0.20;;;;;;;-3.55;73.54;98006.50;5064559;28;20052;-63
2024/01/11 00:25:54;;;;;;;0.20;0.20;;;;;;;-3.88;73.17;97936.38;5057324;28;20061;-65
2024/01/11 00:28:21;;;;;;;0.10;0.10;;;;;;;-3.59;72.86;97993.75;5064692;28;20506;-63
2024/01/11 00:30:48;;;;;;;0.10;0.10;;;;;;;-3.47;73.20;98007.91;5064675;28;20518;-62
2024/01/11 00:33:14;;;;;;;0.15;0.15;;;;;;;-3.40;72.23;97997.72;5066251;28;20600;-62
2024/01/11 00:35:41;;;;;;;0.17;0.17;;;;;;;-3.30;72.29;98005.91;5064889;28;20052;-62
2024/01/11 00:38:08;;;;;;;0.20;0.20;;;;;;;-3.35;71.77;98000.47;5065939;28;20158;-65
2024/01/11 00:40:35;;;;;;;0.20;0.20;;;;;;;-3.36;72.12;97990.69;5065928;28;20056;-63
2024/01/11 00:43:02;;;;;;;0.20;0.20;;;;;;;-3.89;71.73;97893.34;5066021;28;20047;-64
2024/01/11 00:45:29;;;;;;;0.20;0.20;;;;;;;-3.39;71.48;97993.91;5048144;28;20128;-64
2024/01/11 00:47:55;;;;;;;0.20;0.20;;;;;;;-3.52;71.97;97978.09;5066129;28;20481;-63
2024/01/11 00:50:22;;;;;;;0.17;0.17;;;;;;;-3.77;72.80;97948.09;5065779;28;20060;-64
2024/01/11 00:52:49;;;;;;;0.10;0.10;;;;;;;-3.59;72.64;97977.50;5065894;28;20110;-62
2024/01/11 00:55:16;;;;;;;0.10;0.10;;;;;;;-3.51;72.29;97974.31;5066306;28;20431;-64
2024/01/11 00:57:42;;;;;;;0.20;0.20;;;;;;;-3.55;72.33;97973.19;5066018;28;20045;-62
2024/01/11 01:00:13;;;;;;;0.20;0.20;;;;;;;-3.53;72.16;97976.47;5064107;28;20127;-64
2024/01/11 01:02:40;;;;;;;0.20;0.20;;;;;;;-3.57;72.17;97983.44;5065531;28;20045;-63
2024/01/11 01:05:08;;;;;;;0.10;0.10;;;;;;;-3.73;72.05;97962.75;5065932;28;20044;-62
2024/01/11 01:07:34;;;;;;;0.17;0.17;;;;;;;-3.68;72.28;97989.84;5063995;28;20145;-63
2024/01/11 01:10:01;;;;;;;0.10;0.10;;;;;;;-3.69;72.67;97982.81;1676178;28;10002259;-64
2024/01/11 01:12:28;;;;;;;0.10;0.10;;;;;;;-3.69;72.31;97977.41;4963899;28;20045;-64
2024/01/11 01:14:58;;;;;;;0.10;0.10;;;;;;;-4.05;73.13;97929.44;5060482;28;20503;-64
2024/01/11 01:17:25;;;;;;;0.10;0.10;;;;;;;-3.78;73.52;97974.34;5027625;28;20049;-63
2024/01/11 01:19:51;;;;;;;0.10;0.10;;;;;;;-3.86;73.37;97938.81;5027349;28;20530;-62
2024/01/11 01:22:18;;;;;;;0.10;0.10;;;;;;;-3.81;73.64;97968.63;5027245;28;20049;-64
2024/01/11 01:24:45;;;;;;;0.15;0.15;;;;;;;-3.79;73.94;97961.06;5027245;28;20518;-63
2024/01/11 01:27:12;;;;;;;0.20;0.20;;;;;;;-3.98;74.90;97957.13;5045038;28;20076;-64
2024/01/11 01:29:39;;;;;;;0.10;0.10;;;;;;;-4.01;75.28;97952.19;5027439;28;20051;-63
2024/01/11 01:32:06;;;;;;;0.10;0.10;;;;;;;-4.11;75.32;97946.69;5026941;28;20512;-62
2024/01/11 01:34:33;;;;;;;0.10;0.10;;;;;;;-4.31;75.09;97919.41;5045078;28;20053;-64
2024/01/11 01:37:00;;;;;;;0.10;0.10;;;;;;;-4.06;74.96;97941.34;5027038;28;20130;-62
2024/01/11 01:39:26;;;;;;;0.20;0.20;;;;;;;-4.00;74.06;97937.59;5027180;28;20065;-63
2024/01/11 01:41:53;;;;;;;0.10;0.10;;;;;;;-4.05;74.21;97924.84;5045046;28;20075;-64
2024/01/11 01:44:20;;;;;;;0.10;0.10;;;;;;;-4.47;73.88;97871.69;5045028;28;20044;-62
2024/01/11 01:46:48;;;;;;;0.10;0.10;;;;;;;-4.29;74.44;97891.06;5044772;28;20492;-63
2024/01/11 01:49:18;;;;;;;0.10;0.10;;;;;;;-4.08;74.95;97919.97;5045296;28;20059;-63
2024/01/11 01:51:45;;;;;;;0.10;0.10;;;;;;;-4.02;75.50;97912.69;5026737;28;20052;-63
2024/01/11 01:54:12;;;;;;;0.10;0.10;;;;;;;-4.09;75.61;97912.91;5044768;28;20061;-63
2024/01/11 01:56:39;;;;;;;0.15;0.15;;;;;;;-4.08;76.01;97902.91;5044143;28;20049;-65
2024/01/11 01:59:06;;;;;;;0.13;0.13;;;;;;;-4.06;75.34;97906.19;5026997;28;20057;-63
2024/01/11 02:01:34;;;;;;;0.20;0.20;;;;;;;-4.25;75.12;97881.34;5044192;28;20057;-63
2024/01/11 02:04:00;;;;;;;0.20;0.20;;;;;;;-4.04;75.33;97893.19;5044696;28;20145;-64
2024/01/11 02:06:31;;;;;;;0.13;0.13;;;;;;;-5.48;74.69;97721.19;5044399;28;20049;-63
2024/01/11 02:08:59;;;;;;;0.10;0.10;;;;;;;-4.17;74.59;97861.19;5044554;28;20048;-64
2024/01/11 02:11:26;;;;;;;0.10;0.10;;;;;;;-3.96;74.59;97888.13;5026630;28;20048;-63
2024/01/11 02:13:54;;;;;;;0.20;0.20;;;;;;;-4.97;74.23;97737.69;5044500;28;20076;-63
2024/01/11 02:16:20;;;;;;;0.10;0.10;;;;;;;-4.45;74.13;97828.97;5026345;28;20824;-64
2024/01/11 02:18:47;;;;;;;0.20;0.20;;;;;;;-4.08;73.68;97887.50;5044515;28;20048;-64
2024/01/11 02:21:18;;;;;;;0.20;0.20;;;;;;;-4.16;73.55;97885.25;5044313;28;20059;-64
2024/01/11 07:27:00;;;;;;;0.20;0.20;;;;;;;-1.81;64.51;97611.41;5063057;27;1484844;-61
2024/01/11 07:29:26;;;;;;;0.20;0.20;;;;;;;-0.94;63.85;97724.00;5120931;28;20409;-69
2024/01/11 07:31:53;;;;;;;0.20;0.20;;;;;;;-1.41;62.67;97653.06;5119472;28;20116;-65
2024/01/11 07:34:20;;;;;;;0.20;0.20;;;;;;;-1.67;62.92;97573.59;5117905;28;20051;-61
2024/01/11 07:36:47;;;;;;;0.20;0.20;;;;;;;-0.79;62.48;97683.16;5101269;28;20130;-61
2024/01/11 07:39:14;;;;;;;0.20;0.20;;;;;;;-0.83;62.59;97644.00;5102766;28;20058;-65
2024/01/11 07:41:41;;;;;;;0.20;0.20;;;;;;;-0.17;62.17;97718.56;5120958;27;20047;-61
2024/01/11 07:44:08;;;;;;;0.20;0.20;;;;;;;0.07;60.68;97719.44;5121268;27;20047;-70
2024/01/11 07:46:36;;;;;;;0.20;0.20;;;;;;;0.15;59.57;97716.09;5118278;28;20083;-60
2024/01/11 07:49:15;;;;;;;0.20;0.20;;;;;;;0.29;59.88;97711.59;5111465;27;20052;-61
2024/01/11 07:51:42;;;;;;;0.20;0.20;;;;;;;0.32;59.46;97697.41;5102630;28;20058;-74
2024/01/11 07:54:08;;;;;;;0.20;0.20;;;;;;;-0.06;58.84;97594.88;5111164;28;20058;-64
2024/01/11 07:56:35;;;;;;;0.20;0.20;;;;;;;0.03;58.43;97555.03;5101665;27;20039;-63
2024/01/11 07:59:02;;;;;;;0.20;0.20;;;;;;;1.07;57.35;97701.13;5110681;28;20607;-70
2024/01/11 08:01:29;;;;;;;0.20;0.20;;;;;;;-0.57;56.82;97464.00;5115344;28;20074;-66
2024/01/11 08:03:56;;;;;;;0.20;0.20;;;;;;;1.31;57.21;97691.75;5120852;27;20797;-78
2024/01/11 08:06:22;;;;;;;0.20;0.20;;;;;;;1.06;55.95;97666.78;5102784;28;20048;-64
2024/01/11 08:08:51;;;;;;;0.20;0.20;;;;;;;1.47;56.41;97684.97;5077202;28;20141;-64
2024/01/11 08:11:19;;;;;;;0.20;0.20;;;;;;;0.71;54.90;97561.72;5075217;28;20137;-62
2024/01/11 08:13:46;;;;;;;0.20;0.20;;;;;;;1.72;55.62;97682.97;5069723;28;20072;-67
2024/01/11 08:16:17;;;;;;;0.20;0.20;;;;;;;1.52;54.91;97610.38;5063628;28;20056;-62
2024/01/11 08:18:45;;;;;;;0.28;0.28;;;;;;;1.09;54.59;97546.97;5060294;28;20061;-69
2024/01/11 08:21:13;;;;;;;0.20;0.20;;;;;;;1.91;54.35;97615.44;5064935;28;20044;-62
2024/01/11 08:23:48;;;;;;;0.20;0.20;;;;;;;2.34;53.05;97666.03;5069795;28;20052;-62
2024/01/11 08:26:15;;;;;;;0.30;0.30;;;;;;;2.48;53.11;97688.72;5063025;28;20056;-67
2024/01/11 08:28:43;;;;;;;0.20;0.20;;;;;;;1.79;51.74;97572.22;5078677;28;20048;-62
2024/01/11 08:31:10;;;;;;;0.20;0.20;;;;;;;2.57;51.97;97648.59;5064958;28;20045;-62
2024/01/11 08:33:37;;;;;;;0.20;0.20;;;;;;;2.37;52.66;97629.88;5055805;28;20111;-67
2024/01/11 08:36:07;;;;;;;0.20;0.20;;;;;;;2.66;53.20;97646.75;5045998;28;20594;-68
2024/01/11 08:38:35;;;;;;;0.20;0.20;;;;;;;2.44;53.39;97595.53;5046511;28;20067;-63
2024/01/11 08:41:03;;;;;;;0.30;0.30;;;;;;;2.87;53.58;97604.19;5046736;28;20132;-69
2024/01/11 08:43:30;;;;;;;0.30;0.30;;;;;;;3.21;52.56;97634.59;5045004;28;20057;-63
2024/01/11 08:45:57;;;;;;;0.20;0.20;;;;;;;2.44;52.20;97485.38;5046191;28;20049;-69
2024/01/11 08:48:24;;;;;;;0.20;0.20;;;;;;;2.31;52.24;97508.09;5049291;28;20037;-69
2024/01/11 08:50:51;;;;;;;0.28;0.28;;;;;;;3.05;52.66;97633.34;5060477;28;20052;-62
2024/01/11 08:53:18;;;;;;;0.20;0.20;;;;;;;2.75;52.70;97532.81;5066272;28;20075;-64
2024/01/11 08:55:45;;;;;;;0.30;0.30;;;;;;;1.98;52.26;97413.72;5064203;28;20580;-62
2024/01/11 08:58:13;;;;;;;0.20;0.20;;;;;;;3.83;51.77;97622.69;5066240;28;20554;-63
2024/01/11 09:00:40;;;;;;;0.30;0.30;;;;;;;2.64;51.44;97405.63;5063833;28;20064;-68
2024/01/11 09:03:07;;;;;;;0.20;0.20;;;;;;;4.24;51.59;97606.78;5065939;28;20127;-63
2024/01/11 09:05:34;;;;;;;0.30;0.30;;;;;;;4.34;48.78;97600.22;5064527;28;20494;-61
2024/01/11 09:08:01;;;;;;;0.30;0.30;;;;;;;4.36;49.10;97576.03;5064510;28;20054;-63
2024/01/11 09:10:28;;;;;;;0.30;0.30;;;;;;;4.43;48.08;97588.16;5063630;28;20538;-69
2024/01/11 09:12:55;;;;;;;0.30;0.30;;;;;;;4.66;47.05;97586.16;5065812;28;20430;-64
2024/01/11 09:15:22;;;;;;;0.30;0.30;;;;;;;3.56;47.18;97354.44;5049516;28;20510;-63
2024/01/11 09:17:50;;;;;;;0.30;0.30;;;;;;;4.84;47.03;97535.63;5045957;28;20419;-69
2024/01/11 09:20:18;;;;;;;0.30;0.30;;;;;;;5.26;47.36;97561.50;5045377;28;20157;-63
2024/01/11 09:22:46;;;;;;;0.30;0.30;;;;;;;5.14;46.76;97558.59;5045843;28;20554;-63
2024/01/11 09:25:13;;;;;;;0.30;0.30;;;;;;;5.21;47.42;97553.41;5044319;28;20431;-70
2024/01/11 09:27:40;;;;;;;0.30;0.30;;;;;;;5.42;46.50;97543.41;5044402;28;20136;-63
2024/01/11 09:30:07;;;;;;;0.30;0.30;;;;;;;4.61;46.67;97435.41;5045446;28;20494;-69
2024/01/11 09:32:34;;;;;;;0.30;0.30;;;;;;;5.22;46.82;97533.06;5045195;28;20533;-59
2024/01/11 09:35:04;;;;;;;0.30;0.30;;;;;;;5.31;46.90;97520.16;5047111;28;20143;-61
2024/01/11 09:37:32;;;;;;;0.30;0.30;;;;;;;5.41;46.21;97517.03;5065733;28;20144;-69
2024/01/11 09:40:00;;;;;;;0.30;0.30;;;;;;;5.33;47.12;97479.41;5061094;28;20083;-61
2024/01/11 09:42:28;;;;;;;0.30;0.30;;;;;;;5.62;47.92;97505.06;5043670;28;20049;-62
2024/01/11 09:44:56;;;;;;;0.30;0.30;;;;;;;5.84;48.22;97496.63;5045218;28;20057;-62
2024/01/11 09:47:24;;;;;;;0.30;0.30;;;;;;;5.89;47.21;97457.16;5044140;28;20573;-61
2024/01/11 09:49:54;;;;;;;0.30;0.30;;;;;;;6.07;43.43;97488.91;5045021;28;20049;-68
2024/01/11 09:52:22;;;;;;;0.40;0.40;;;;;;;6.29;42.37;97485.91;5044798;28;20541;-69
2024/01/11 09:54:49;;;;;;;0.30;0.30;;;;;;;6.10;44.13;97472.56;5045156;28;20044;-68
2024/01/11 09:57:24;;;;;;;0.30;0.30;;;;;;;5.86;43.64;97444.06;5044858;28;20132;-69
2024/01/11 09:59:55;;;;;;;0.40;0.40;;;;;;;6.10;43.05;97455.28;5043389;28;20518;-61
2024/01/11 10:02:29;;;;;;;0.30;0.30;;;;;;;5.95;43.50;97442.06;5044861;28;20132;-61
2024/01/11 10:04:56;;;;;;;0.30;0.30;;;;;;;5.64;44.36;97436.03;5044919;28;20103;-69
2024/01/11 10:07:24;;;;;;;0.30;0.30;;;;;;;5.99;44.41;97454.03;5044965;28;20052;-61
2024/01/11 10:09:52;;;;;;;0.30;0.30;;;;;;;5.81;43.66;97391.97;5043207;28;20527;-67
2024/01/11 10:12:23;;;;;;;0.40;0.40;;;;;;;6.37;43.30;97460.28;5044703;28;20071;-61
2024/01/11 10:14:50;;;;;;;0.30;0.30;;;;;;;6.23;44.45;97390.94;5052585;28;20049;-67
2024/01/11 10:17:16;;;;;;;0.30;0.30;;;;;;;6.87;44.48;97444.56;5044076;28;20110;-63
2024/01/11 10:19:48;;;;;;;0.30;0.30;;;;;;;6.93;43.64;97418.41;5044359;28;20086;-61
2024/01/11 10:22:17;;;;;;;0.40;0.40;;;;;;;6.96;42.24;97416.91;5042774;28;20491;-68
2024/01/11 10:24:44;;;;;;;0.30;0.30;;;;;;;6.71;42.05;97365.66;5044450;28;20440;-63
2024/01/11 10:27:11;;;;;;;0.40;0.40;;;;;;;7.08;42.07;97415.03;5044036;28;20060;-62
2024/01/11 10:29:38;;;;;;;0.40;0.40;;;;;;;7.16;42.03;97413.34;5044952;28;20537;-68
2024/01/11 10:32:06;;;;;;;0.40;0.40;;;;;;;6.48;41.14;97268.88;5044396;28;20067;-61
2024/01/11 10:34:33;;;;;;;0.40;0.40;;;;;;;7.20;40.71;97384.78;5043959;28;20641;-70
2024/01/11 10:37:00;;;;;;;0.40;0.40;;;;;;;7.43;41.15;97409.97;5044315;28;20542;-64
2024/01/11 10:39:27;;;;;;;0.40;0.40;;;;;;;7.43;41.51;97399.75;5044197;28;20507;-70
2024/01/11 10:42:17;;;;;;;0.40;0.40;;;;;;;7.88;41.33;97393.38;5044254;28;20436;-61
2024/01/11 10:44:48;;;;;;;0.40;0.40;;;;;;;7.94;40.45;97394.75;5044124;28;20052;-62
2024/01/11 10:47:17;;;;;;;0.40;0.40;;;;;;;7.67;40.81;97328.13;5044107;28;20053;-70
2024/01/11 10:49:44;;;;;;;0.40;0.40;;;;;;;6.03;40.49;97042.53;5043629;28;20131;-62
2024/01/11 10:52:13;;;;;;;0.40;0.40;;;;;;;8.26;39.26;97363.50;5044019;28;20060;-70
2024/01/11 10:54:42;;;;;;;0.40;0.40;;;;;;;8.32;39.32;97338.06;5042196;28;20048;-61
2024/01/11 10:57:10;;;;;;;0.50;0.50;;;;;;;8.14;38.99;97313.84;5043491;28;20084;-62
2024/01/11 10:59:37;;;;;;;0.40;0.40;;;;;;;8.55;37.45;97346.66;5043361;28;20047;-62
2024/01/11 11:02:12;;;;;;;0.50;0.50;;;;;;;8.63;37.91;97348.47;5043880;28;20052;-62
2024/01/11 11:04:41;;;;;;;0.40;0.40;;;;;;;8.52;38.41;97336.31;5044087;28;20516;-70
2024/01/11 11:07:09;;;;;;;0.47;0.47;;;;;;;8.29;36.66;97326.91;5043548;28;20514;-71
2024/01/11 11:09:37;;;;;;;0.40;0.40;;;;;;;8.62;37.71;97316.47;5042027;28;20076;-62
2024/01/11 11:12:05;;;;;;;0.40;0.40;;;;;;;8.78;37.85;97317.34;5042518;28;20053;-60
2024/01/11 11:14:34;;;;;;;0.40;0.40;;;;;;;8.34;36.45;97246.66;5050107;28;20519;-69
2024/01/11 11:17:04;;;;;;;0.40;0.40;;;;;;;8.88;36.60;97308.53;5043959;28;20067;-69
2024/01/11 11:19:31;;;;;;;0.40;0.40;;;;;;;8.89;36.84;97302.66;5042829;28;20107;-62
2024/01/11 11:21:58;;;;;;;0.43;0.43;;;;;;;8.40;35.24;97207.41;5043802;28;20072;-69
2024/01/11 11:24:25;;;;;;;0.40;0.40;;;;;;;9.04;35.31;97303.88;5043566;28;20516;-61
2024/01/11 11:26:52;;;;;;;0.40;0.40;;;;;;;9.10;36.00;97296.91;5042774;28;20440;-64
2024/01/11 11:29:20;;;;;;;0.40;0.40;;;;;;;8.54;35.49;97229.88;5043634;28;20060;-70
2024/01/11 11:31:47;;;;;;;0.50;0.50;;;;;;;8.96;35.14;97279.97;5042543;28;20057;-70
2024/01/11 11:34:14;;;;;;;0.40;0.40;;;;;;;9.01;35.59;97249.28;5042314;28;20049;-64
2024/01/11 11:36:46;;;;;;;0.50;0.50;;;;;;;9.01;34.66;97276.91;5043011;28;20501;-62
2024/01/11 11:39:13;;;;;;;0.50;0.50;;;;;;;8.99;34.34;97268.19;5053430;28;20048;-63
2024/01/11 11:41:42;;;;;;;0.50;0.50;;;;;;;8.74;34.30;97228.06;5058727;28;20061;-62
2024/01/11 11:44:15;;;;;;;0.40;0.40;;;;;;;8.39;35.47;97193.97;5062846;28;20128;-69
2024/01/11 11:46:43;;;;;;;0.50;0.50;;;;;;;8.85;35.67;97262.28;5061437;28;20052;-68
2024/01/11 11:49:11;;;;;;;0.50;0.50;;;;;;;8.57;34.70;97234.69;5063609;28;20113;-63
2024/01/11 11:51:40;;;;;;;0.50;0.50;;;;;;;8.69;34.87;97231.09;5049590;28;20105;-66
2024/01/11 11:54:11;;;;;;;0.40;0.40;;;;;;;9.00;33.48;97239.41;5058693;28;20530;-62
2024/01/11 11:56:38;;;;;;;0.50;0.50;;;;;;;8.97;33.03;97234.59;5060730;28;20047;-68
2024/01/11 11:59:06;;;;;;;0.40;0.40;;;;;;;8.81;33.63;97242.06;5060917;28;20052;-62
2024/01/11 12:01:35;;;;;;;0.40;0.40;;;;;;;8.54;33.66;97212.50;5060283;28;20491;-68
2024/01/11 12:04:02;;;;;;;0.45;0.45;;;;;;;8.40;34.00;97168.78;5040418;28;20586;-68
2024/01/11 12:06:29;;;;;;;0.40;0.40;;;;;;;8.77;34.09;97230.13;5057488;28;20083;-63
2024/01/11 12:08:56;;;;;;;0.40;0.40;;;;;;;8.28;34.24;97143.19;5063237;28;20499;-65
2024/01/11 12:11:25;;;;;;;0.40;0.40;;;;;;;8.85;34.31;97218.88;5050705;28;20511;-67
2024/01/11 12:13:53;;;;;;;0.50;0.50;;;;;;;8.87;34.35;97215.75;5044758;28;20057;-66
2024/01/11 12:16:20;;;;;;;0.50;0.50;;;;;;;7.47;34.62;96970.78;5043288;28;20115;-68
2024/01/11 12:18:49;;;;;;;0.40;0.40;;;;;;;9.00;33.33;97204.28;5046811;28;20431;-69
2024/01/11 12:21:16;;;;;;;0.40;0.40;;;;;;;8.78;32.73;97201.34;5061215;28;20167;-66
2024/01/11 12:23:44;;;;;;;0.40;0.40;;;;;;;7.99;34.25;97202.25;5066802;28;20049;-68
2024/01/11 12:26:12;;;;;;;0.50;0.50;;;;;;;7.50;33.29;97102.34;5064411;28;20053;-67
2024/01/11 12:28:42;;;;;;;0.40;0.40;;;;;;;8.07;31.80;97175.66;5066771;28;20055;-67
2024/01/11 12:31:09;;;;;;;0.40;0.40;;;;;;;7.94;31.45;97157.56;5051915;28;20048;-67
2024/01/11 12:33:38;;;;;;;0.40;0.40;;;;;;;7.93;31.68;97159.53;5061894;28;20056;-68
2024/01/11 12:36:07;;;;;;;0.40;0.40;;;;;;;8.07;31.81;97186.69;5050958;28;20056;-66
2024/01/11 12:38:35;;;;;;;0.40;0.40;;;;;;;7.53;31.56;97111.84;5048103;28;20053;-65
2024/01/11 12:41:03;;;;;;;0.40;0.40;;;;;;;8.02;32.00;97179.47;5051278;28;20053;-68
2024/01/11 12:43:34;;;;;;;0.40;0.40;;;;;;;7.94;32.76;97171.34;5065469;28;20055;-65
2024/01/11 12:46:02;;;;;;;0.50;0.50;;;;;;;7.94;32.65;97176.84;5065963;28;20645;-66
2024/01/11 12:48:30;;;;;;;0.40;0.40;;;;;;;8.00;33.85;97169.97;5064547;28;20056;-69
2024/01/11 12:50:58;;;;;;;0.40;0.40;;;;;;;7.57;34.54;97157.66;5053935;28;20068;-65
2024/01/11 12:53:40;;;;;;;0.40;0.40;;;;;;;7.63;35.32;97111.38;5046155;28;20187;-67
2024/01/11 12:56:10;;;;;;;0.40;0.40;;;;;;;7.98;34.43;97166.75;5045585;28;20156;-66
2024/01/11 12:58:38;;;;;;;0.40;0.40;;;;;;;7.95;35.74;97161.94;5046056;28;20049;-66
2024/01/11 13:01:08;;;;;;;0.40;0.40;;;;;;;7.89;36.95;97153.09;5044210;28;20045;-63
2024/01/11 13:03:38;;;;;;;0.40;0.40;;;;;;;7.50;37.18;97132.66;5052117;28;20049;-62
2024/01/11 13:06:05;;;;;;;0.40;0.40;;;;;;;7.07;37.67;97052.63;5063301;28;20403;-69
2024/01/11 13:08:34;;;;;;;0.40;0.40;;;;;;;7.51;37.41;97122.41;5064046;28;20131;-67
2024/01/11 13:11:05;;;;;;;0.40;0.40;;;;;;;6.99;37.75;97094.88;5053853;28;20534;-69
2024/01/11 13:13:35;;;;;;;0.40;0.40;;;;;;;6.81;36.93;97068.72;5057029;28;20801;-67
2024/01/11 13:16:05;;;;;;;0.40;0.40;;;;;;;7.42;38.02;97150.13;5063873;28;20048;-59
2024/01/11 13:18:33;;;;;;;0.40;0.40;;;;;;;7.31;38.85;97143.50;5062088;28;20052;-64
2024/01/11 13:21:00;;;;;;;0.30;0.30;;;;;;;7.40;38.98;97141.41;5064342;28;20051;-67
2024/01/11 13:23:27;;;;;;;0.40;0.40;;;;;;;6.39;38.38;97012.31;5058638;28;20064;-67
2024/01/11 13:25:53;;;;;;;0.38;0.38;;;;;;;5.84;38.11;96913.09;5062939;28;20056;-72
2024/01/11 13:28:20;;;;;;;0.40;0.40;;;;;;;6.76;39.48;97066.22;5063773;28;20227;-67
2024/01/11 13:30:48;;;;;;;0.40;0.40;;;;;;;7.11;40.06;97127.88;5063860;28;20040;-62
2024/01/11 13:33:17;;;;;;;0.40;0.40;;;;;;;7.07;40.92;97126.97;5048342;28;20049;-63
2024/01/11 13:35:45;;;;;;;0.40;0.40;;;;;;;6.96;42.24;97120.34;5057590;28;20105;-68
2024/01/11 13:38:13;;;;;;;0.40;0.40;;;;;;;6.22;42.88;97078.56;5065293;28;20221;-63
2024/01/11 13:40:41;;;;;;;0.30;0.30;;;;;;;6.17;44.50;97021.03;5032825;28;20439;-69
2024/01/11 13:43:09;;;;;;;0.40;0.40;;;;;;;5.95;45.46;96974.72;5006284;28;20045;-63
2024/01/11 13:45:36;;;;;;;0.40;0.40;;;;;;;6.81;45.97;97112.75;5003015;28;20394;-72
2024/01/11 13:48:04;;;;;;;0.38;0.38;;;;;;;6.81;46.42;97112.75;5000403;28;20052;-73
2024/01/11 13:50:32;;;;;;;0.30;0.30;;;;;;;6.61;46.54;97110.91;5001678;28;20053;-57
2024/01/11 13:53:00;;;;;;;0.40;0.40;;;;;;;6.03;47.41;97015.06;5024374;28;20054;-64
2024/01/11 13:55:29;;;;;;;0.40;0.40;;;;;;;6.07;48.05;97035.22;5065806;28;20595;-76
2024/01/11 13:57:56;;;;;;;0.40;0.40;;;;;;;6.26;48.75;97051.19;5065249;28;20055;-62
2024/01/11 14:00:23;;;;;;;0.30;0.30;;;;;;;6.46;49.14;97094.28;5062115;28;20064;-62
2024/01/11 14:02:50;;;;;;;0.40;0.40;;;;;;;6.42;49.41;97099.66;5064767;28;20059;-61
2024/01/11 14:05:17;;;;;;;0.30;0.30;;;;;;;6.21;49.50;97098.97;5065293;28;20055;-63
2024/01/11 14:07:46;;;;;;;0.30;0.30;;;;;;;6.17;49.46;97087.03;5066063;28;20048;-68
2024/01/11 14:10:14;;;;;;;0.30;0.30;;;;;;;6.27;49.65;97092.09;5065954;28;20620;-62
2024/01/11 14:12:42;;;;;;;0.30;0.30;;;;;;;6.04;49.89;97094.44;5070784;28;20426;-61
2024/01/11 14:15:12;;;;;;;0.40;0.40;;;;;;;6.22;49.96;97099.75;5065834;28;20525;-61
2024/01/11 14:17:41;;;;;;;0.30;0.30;;;;;;;6.03;50.42;97056.28;5066587;28;20056;-62
2024/01/11 14:20:12;;;;;;;0.40;0.40;;;;;;;5.97;51.04;97076.91;5056819;28;20098;-71
2024/01/11 14:22:42;;;;;;;0.35;0.35;;;;;;;5.96;50.66;97075.28;5057629;28;20056;-64
2024/01/11 14:25:12;;;;;;;0.30;0.30;;;;;;;5.67;51.48;97046.00;5064376;28;20048;-67
2024/01/11 14:27:39;;;;;;;0.30;0.30;;;;;;;5.83;51.18;97076.41;5065252;28;20052;-62
2024/01/11 14:30:09;;;;;;;0.30;0.30;;;;;;;5.84;50.96;97078.00;5061467;28;20051;-64
2024/01/11 14:32:37;;;;;;;0.30;0.30;;;;;;;5.74;51.11;97083.88;5063649;28;20052;-71
2024/01/11 14:35:05;;;;;;;0.30;0.30;;;;;;;5.65;51.28;97069.44;5065223;28;20083;-66
2024/01/11 14:37:34;;;;;;;0.30;0.30;;;;;;;5.52;51.97;97065.03;5064485;28;20048;-72
2024/01/11 14:40:01;;;;;;;0.40;0.40;;;;;;;5.51;52.08;97068.91;5064985;28;20075;-68
2024/01/11 14:42:28;;;;;;;0.30;0.30;;;;;;;5.53;52.05;97056.44;5066050;28;20431;-71
2024/01/11 14:44:55;;;;;;;0.30;0.30;;;;;;;5.14;52.01;96987.53;5058361;28;20048;-74
2024/01/11 14:47:23;;;;;;;0.30;0.30;;;;;;;5.35;52.84;97065.19;5060623;28;20048;-63
2024/01/11 14:49:50;;;;;;;0.30;0.30;;;;;;;5.20;52.88;97068.56;5060295;28;20059;-68
2024/01/11 14:52:18;;;;;;;0.30;0.30;;;;;;;4.19;53.31;96995.63;5058922;28;20102;-72
2024/01/11 14:54:47;;;;;;;0.30;0.30;;;;;;;4.88;53.55;97066.50;5061117;28;20212;-61
2024/01/11 14:57:15;;;;;;;0.30;0.30;;;;;;;3.37;54.24;96899.47;5063013;28;20127;-60
2024/01/11 14:59:42;;;;;;;0.30;0.30;;;;;;;4.51;54.72;97079.97;5055813;28;20063;-62
2024/01/11 15:02:10;;;;;;;0.30;0.30;;;;;;;4.32;55.61;97049.41;5053316;28;20057;-64
2024/01/11 15:04:38;;;;;;;0.30;0.30;;;;;;;4.20;55.51;97046.56;5055502;28;20063;-60
2024/01/11 15:07:05;;;;;;;0.30;0.30;;;;;;;4.21;56.39;97070.09;5053329;28;21866;-59
2024/01/11 15:09:34;;;;;;;0.30;0.30;;;;;;;1.33;56.21;96636.38;5045349;28;20131;-61
2024/01/11 15:12:02;;;;;;;0.30;0.30;;;;;;;3.86;57.19;97068.59;5043175;28;20048;-76
2024/01/11 15:14:29;;;;;;;0.30;0.30;;;;;;;3.72;57.58;97068.00;5058774;28;20135;-64
2024/01/11 15:16:57;;;;;;;0.30;0.30;;;;;;;3.58;58.46;97067.38;5059225;28;20538;-61
2024/01/11 15:19:24;;;;;;;0.30;0.30;;;;;;;3.13;58.84;97021.56;5058458;28;20559;-63
2024/01/11 15:21:51;;;;;;;0.30;0.30;;;;;;;3.39;59.19;97068.84;5058487;28;20052;-62
2024/01/11 15:24:19;;;;;;;0.30;0.30;;;;;;;3.23;59.26;97065.81;5060910;28;20186;-64
2024/01/11 15:26:48;;;;;;;0.28;0.28;;;;;;;3.18;58.67;97068.69;5060649;28;20052;-63
2024/01/11 15:29:16;;;;;;;0.20;0.20;;;;;;;3.10;58.74;97066.75;5060600;28;20122;-63
2024/01/11 15:31:45;;;;;;;0.20;0.20;;;;;;;2.94;58.57;97077.38;5061105;28;20071;-62
2024/01/11 15:34:14;;;;;;;0.25;0.25;;;;;;;2.82;59.48;97070.94;5063217;28;20060;-62
2024/01/11 15:36:42;;;;;;;0.20;0.20;;;;;;;-0.11;59.30;96628.63;5063962;28;20045;-64
2024/01/11 15:39:10;;;;;;;0.20;0.20;;;;;;;2.44;59.56;97067.16;5063997;28;20044;-62
2024/01/11 15:41:41;;;;;;;0.20;0.20;;;;;;;2.56;59.80;97070.09;5063535;28;20535;-62
2024/01/11 15:44:08;;;;;;;0.20;0.20;;;;;;;2.08;60.01;97107.53;5064429;28;20060;-62
2024/01/11 15:46:35;;;;;;;0.20;0.20;;;;;;;2.31;60.48;97065.38;5067933;28;20561;-62
2024/01/11 15:49:01;;;;;;;0.20;0.20;;;;;;;2.08;61.10;97066.56;5068366;28;20065;-63
2024/01/11 15:51:29;;;;;;;0.20;0.20;;;;;;;1.90;62.69;97073.09;5068410;28;20602;-63
2024/01/11 15:53:56;;;;;;;0.20;0.20;;;;;;;1.91;62.78;97082.88;5068311;28;20222;-62
2024/01/11 15:56:22;;;;;;;0.20;0.20;;;;;;;1.50;63.01;97040.25;5067917;28;20066;-62
2024/01/11 15:58:49;;;;;;;0.20;0.20;;;;;;;1.36;63.67;97016.88;5068146;28;20059;-64
2024/01/11 16:01:16;;;;;;;0.20;0.20;;;;;;;1.47;64.54;97100.91;5048649;28;20061;-62
2024/01/11 16:03:44;;;;;;;0.20;0.20;;;;;;;1.66;65.10;97076.13;5047982;28;20056;-63
2024/01/11 16:06:11;;;;;;;0.20;0.20;;;;;;;1.48;65.62;97080.72;5062295;28;20118;-61
2024/01/11 16:08:38;;;;;;;0.30;0.30;;;;;;;1.53;65.34;97077.84;5047831;28;20179;-62
2024/01/11 16:11:05;;;;;;;0.20;0.20;;;;;;;1.47;65.70;97084.53;5047615;28;20053;-62
2024/01/11 16:13:32;;;;;;;0.22;0.22;;;;;;;1.46;65.42;97090.31;5047561;28;20456;-62
2024/01/11 16:15:59;;;;;;;0.20;0.20;;;;;;;1.35;65.49;97057.03;5051122;28;20076;-62
2024/01/11 16:18:26;;;;;;;0.20;0.20;;;;;;;1.18;65.47;97035.09;5067739;28;20056;-61
2024/01/11 16:20:54;;;;;;;0.20;0.20;;;;;;;1.36;65.95;97080.44;5065927;28;20128;-62
2024/01/11 16:23:21;;;;;;;0.20;0.20;;;;;;;0.75;66.00;96994.97;5065757;28;20045;-62
2024/01/11 16:25:48;;;;;;;0.20;0.20;;;;;;;1.36;65.66;97076.91;5066911;28;20064;-62
2024/01/11 16:28:15;;;;;;;0.30;0.30;;;;;;;1.25;66.26;97075.53;5065710;28;20044;-62
2024/01/11 16:30:42;;;;;;;0.20;0.20;;;;;;;1.03;67.08;97079.06;5067233;28;20064;-63
2024/01/11 16:33:09;;;;;;;0.20;0.20;;;;;;;0.24;67.83;96956.41;5067227;28;20052;-61
2024/01/11 16:35:36;;;;;;;0.20;0.20;;;;;;;0.98;67.98;97073.75;5066554;28;20053;-62
2024/01/11 16:38:15;;;;;;;0.20;0.20;;;;;;;0.95;68.14;97104.34;5065995;28;20127;-62
2024/01/11 16:40:42;;;;;;;0.20;0.20;;;;;;;0.91;69.04;97076.09;5067190;28;20054;-62
2024/01/11 16:43:11;;;;;;;0.20;0.20;;;;;;;0.76;69.29;97062.81;5065633;28;20056;-63
2024/01/11 16:45:39;;;;;;;0.20;0.20;;;;;;;0.73;70.06;97057.97;5066647;28;20613;-62